Falmouth, MA

10:52 PM EDT on May 25, 2015 (GMT -0400)
Falmouth Village | | Change Station
CLOSE
Current Station
Personal Weather Station
Location: Falmouth, MA
Elevation: 13 ft
Nearby Weather Stations

Elev 13 ft 41.55 °N, 70.61 °W | Updated 21 seconds ago

Partly Cloudy
Partly Cloudy
60.6 °F
Feels Like 60.6 °F
N
1.6
Wind Variable Wind from ESE
Gusts 6.3 mph

Today
High -- | Low -- °F
--% Chance of Precip.
Yesterday
High -- | Low -- °F
Precip. -- in
5:15 AM 8:04 PM
First Quarter, 54% visible
Pressure 30.23 in
Visibility 10.0 miles
Clouds Few 19000 ft
Scattered Clouds 21000 ft
Dew Point 60 °F
Humidity 96%
Rainfall 0.00 in
Snow Depth Not available.
UV 0 out of 12
Pollen 9.30 out of 12
Air Quality Not available.
Flu Activity Local Activity
METAR KFMH 260235Z AUTO 22013G21KT 10SM FEW190 SCT210 16/14 A3023 RMK AO2

More Conditions Fewer Conditions

Pressure 30.23 in
Visibility 10.0 miles
Clouds Few 19000 ft
Scattered Clouds 21000 ft
Dew Point 60 °F
Humidity 96%
Rainfall 0.00 in
Snow Depth Not available.
UV 0 out of 12
Pollen 9.30 out of 12
Air Quality Not available.
Flu Activity Local Activity
METAR KFMH 260235Z AUTO 22013G21KT 10SM FEW190 SCT210 16/14 A3023 RMK AO2

More Conditions Fewer Conditions

10-Day Weather Forecast

Almanac

Astronomy

May. 25, 2015 Rise Set
Actual Time
Civil Twilight
Nautical Twilight
Astronomical Twilight
Moon
Length of Visible Light
Length of Day
Tomorrow will be .
, % of the Moon is Illuminated

Today's Extremes

State Highs State Lows

Community

WunderPhotos

Upload Photos

1,824,238 photos uploaded!

WunderBlogs® & News

Nearby

Air Quality

  Air Quality AQ Index Pollutant
Not available.

Snow Depth

Station Depth Elevation

Earthquake Activity

City Distance Mag. Time & Date
Minimum magnitude displayed is 2.5.

Coastal Water Temperatures

Place Temperature

Stations

Nearby Weather Stations

Station Location Temp. Windchill Dew Point Humidity Wind Precip. Elev Updated Type